sensor_id;sensor_type;location;lat;lon;timestamp;P1;durP1;ratioP1;P2;durP2;ratioP2
77061;SDS011;65989;51.686;5.138;2023-04-25T00:01:20;14.73;;;3.78;;
77061;SDS011;65989;51.686;5.138;2023-04-25T00:03:46;13.33;;;3.83;;
77061;SDS011;65989;51.686;5.138;2023-04-25T00:06:12;13.90;;;4.20;;
77061;SDS011;65989;51.686;5.138;2023-04-25T00:08:37;15.73;;;3.40;;
77061;SDS011;65989;51.686;5.138;2023-04-25T00:11:03;13.75;;;3.60;;
77061;SDS011;65989;51.686;5.138;2023-04-25T00:13:29;15.20;;;3.53;;
77061;SDS011;65989;51.686;5.138;2023-04-25T00:15:55;15.43;;;3.75;;
77061;SDS011;65989;51.686;5.138;2023-04-25T00:18:21;12.30;;;3.37;;
77061;SDS011;65989;51.686;5.138;2023-04-25T00:20:46;11.55;;;3.30;;
77061;SDS011;65989;51.686;5.138;2023-04-25T00:23:15;14.50;;;3.73;;
77061;SDS011;65989;51.686;5.138;2023-04-25T00:25:46;10.40;;;3.72;;
77061;SDS011;65989;51.686;5.138;2023-04-25T00:28:13;10.90;;;3.17;;
77061;SDS011;65989;51.686;5.138;2023-04-25T00:30:39;16.20;;;3.90;;
77061;SDS011;65989;51.686;5.138;2023-04-25T00:33:05;11.70;;;3.40;;
77061;SDS011;65989;51.686;5.138;2023-04-25T00:35:31;13.60;;;3.63;;
77061;SDS011;65989;51.686;5.138;2023-04-25T00:37:57;16.38;;;3.60;;
77061;SDS011;65989;51.686;5.138;2023-04-25T00:40:22;14.33;;;3.40;;
77061;SDS011;65989;51.686;5.138;2023-04-25T00:42:48;13.07;;;3.77;;
77061;SDS011;65989;51.686;5.138;2023-04-25T00:45:14;19.30;;;3.95;;
77061;SDS011;65989;51.686;5.138;2023-04-25T00:47:40;12.38;;;3.60;;
77061;SDS011;65989;51.686;5.138;2023-04-25T00:50:07;14.20;;;3.88;;
77061;SDS011;65989;51.686;5.138;2023-04-25T00:52:33;13.17;;;3.37;;
77061;SDS011;65989;51.686;5.138;2023-04-25T00:54:58;14.68;;;4.00;;
77061;SDS011;65989;51.686;5.138;2023-04-25T00:57:24;15.37;;;4.07;;
77061;SDS011;65989;51.686;5.138;2023-04-25T00:59:50;15.85;;;3.67;;
77061;SDS011;65989;51.686;5.138;2023-04-25T01:02:17;16.65;;;3.67;;
77061;SDS011;65989;51.686;5.138;2023-04-25T01:04:43;14.75;;;4.00;;
77061;SDS011;65989;51.686;5.138;2023-04-25T01:07:09;15.53;;;3.60;;
77061;SDS011;65989;51.686;5.138;2023-04-25T01:09:35;15.75;;;4.60;;
77061;SDS011;65989;51.686;5.138;2023-04-25T01:12:00;16.33;;;3.77;;
77061;SDS011;65989;51.686;5.138;2023-04-25T01:14:27;15.27;;;3.63;;
77061;SDS011;65989;51.686;5.138;2023-04-25T01:16:54;14.20;;;3.65;;
77061;SDS011;65989;51.686;5.138;2023-04-25T01:19:19;21.60;;;4.60;;
77061;SDS011;65989;51.686;5.138;2023-04-25T01:21:45;19.37;;;4.83;;
77061;SDS011;65989;51.686;5.138;2023-04-25T01:24:11;16.15;;;4.30;;
77061;SDS011;65989;51.686;5.138;2023-04-25T01:26:37;17.25;;;3.97;;
77061;SDS011;65989;51.686;5.138;2023-04-25T01:29:06;16.10;;;4.33;;
77061;SDS011;65989;51.686;5.138;2023-04-25T01:31:33;16.70;;;4.15;;
77061;SDS011;65989;51.686;5.138;2023-04-25T01:34:00;24.85;;;4.50;;
77061;SDS011;65989;51.686;5.138;2023-04-25T01:36:25;15.02;;;4.10;;
77061;SDS011;65989;51.686;5.138;2023-04-25T01:38:52;15.90;;;4.27;;
77061;SDS011;65989;51.686;5.138;2023-04-25T01:41:18;19.35;;;4.40;;
77061;SDS011;65989;51.686;5.138;2023-04-25T01:43:44;11.82;;;3.72;;
77061;SDS011;65989;51.686;5.138;2023-04-25T01:46:10;17.20;;;4.23;;
77061;SDS011;65989;51.686;5.138;2023-04-25T01:48:37;22.75;;;4.63;;
77061;SDS011;65989;51.686;5.138;2023-04-25T01:51:02;17.57;;;3.70;;
77061;SDS011;65989;51.686;5.138;2023-04-25T01:53:28;15.43;;;3.85;;
77061;SDS011;65989;51.686;5.138;2023-04-25T01:55:54;24.03;;;4.57;;
77061;SDS011;65989;51.686;5.138;2023-04-25T01:58:19;12.30;;;3.75;;
77061;SDS011;65989;51.686;5.138;2023-04-25T02:00:45;21.73;;;4.77;;
77061;SDS011;65989;51.686;5.138;2023-04-25T02:03:11;17.85;;;4.57;;
77061;SDS011;65989;51.686;5.138;2023-04-25T02:05:37;18.50;;;4.17;;
77061;SDS011;65989;51.686;5.138;2023-04-25T02:08:04;19.65;;;4.28;;
77061;SDS011;65989;51.686;5.138;2023-04-25T02:10:31;16.95;;;4.28;;
77061;SDS011;65989;51.686;5.138;2023-04-25T02:12:57;21.17;;;5.13;;
77061;SDS011;65989;51.686;5.138;2023-04-25T02:15:23;20.60;;;4.70;;
77061;SDS011;65989;51.686;5.138;2023-04-25T02:17:48;17.03;;;4.30;;
77061;SDS011;65989;51.686;5.138;2023-04-25T02:20:14;22.48;;;3.90;;
77061;SDS011;65989;51.686;5.138;2023-04-25T02:22:41;17.47;;;4.17;;
77061;SDS011;65989;51.686;5.138;2023-04-25T02:25:07;17.70;;;3.90;;
77061;SDS011;65989;51.686;5.138;2023-04-25T02:27:34;15.88;;;3.88;;
77061;SDS011;65989;51.686;5.138;2023-04-25T02:29:59;17.07;;;4.23;;
77061;SDS011;65989;51.686;5.138;2023-04-25T02:32:25;16.97;;;4.20;;
77061;SDS011;65989;51.686;5.138;2023-04-25T02:34:50;17.80;;;4.13;;
77061;SDS011;65989;51.686;5.138;2023-04-25T02:37:16;21.80;;;4.20;;
77061;SDS011;65989;51.686;5.138;2023-04-25T02:39:41;14.73;;;3.95;;
77061;SDS011;65989;51.686;5.138;2023-04-25T02:42:06;20.67;;;4.07;;
77061;SDS011;65989;51.686;5.138;2023-04-25T02:44:32;18.77;;;4.47;;
77061;SDS011;65989;51.686;5.138;2023-04-25T02:46:57;21.90;;;4.30;;
77061;SDS011;65989;51.686;5.138;2023-04-25T02:49:23;22.23;;;5.53;;
77061;SDS011;65989;51.686;5.138;2023-04-25T02:51:48;19.80;;;4.82;;
77061;SDS011;65989;51.686;5.138;2023-04-25T02:54:13;16.40;;;4.40;;
77061;SDS011;65989;51.686;5.138;2023-04-25T02:56:39;21.20;;;5.00;;
77061;SDS011;65989;51.686;5.138;2023-04-25T02:59:04;19.57;;;4.30;;
77061;SDS011;65989;51.686;5.138;2023-04-25T03:01:30;15.60;;;4.37;;
77061;SDS011;65989;51.686;5.138;2023-04-25T03:03:55;21.48;;;5.25;;
77061;SDS011;65989;51.686;5.138;2023-04-25T03:06:20;21.63;;;4.80;;
77061;SDS011;65989;51.686;5.138;2023-04-25T03:08:46;18.43;;;4.33;;
77061;SDS011;65989;51.686;5.138;2023-04-25T03:11:11;17.73;;;4.20;;
77061;SDS011;65989;51.686;5.138;2023-04-25T03:13:36;23.57;;;5.03;;
77061;SDS011;65989;51.686;5.138;2023-04-25T03:16:02;19.00;;;3.88;;
77061;SDS011;65989;51.686;5.138;2023-04-25T03:18:27;16.73;;;4.90;;
77061;SDS011;65989;51.686;5.138;2023-04-25T03:20:53;14.30;;;4.60;;
77061;SDS011;65989;51.686;5.138;2023-04-25T03:23:18;22.37;;;4.50;;
77061;SDS011;65989;51.686;5.138;2023-04-25T03:25:44;11.05;;;3.55;;
77061;SDS011;65989;51.686;5.138;2023-04-25T03:28:09;21.73;;;3.87;;
77061;SDS011;65989;51.686;5.138;2023-04-25T03:30:34;19.43;;;4.40;;
77061;SDS011;65989;51.686;5.138;2023-04-25T03:33:00;16.17;;;4.37;;
77061;SDS011;65989;51.686;5.138;2023-04-25T03:35:25;24.13;;;4.40;;
77061;SDS011;65989;51.686;5.138;2023-04-25T03:37:50;17.25;;;3.47;;
77061;SDS011;65989;51.686;5.138;2023-04-25T03:40:16;19.33;;;4.23;;
77061;SDS011;65989;51.686;5.138;2023-04-25T03:42:41;23.57;;;4.77;;
77061;SDS011;65989;51.686;5.138;2023-04-25T03:45:07;19.77;;;4.00;;
77061;SDS011;65989;51.686;5.138;2023-04-25T03:47:33;19.73;;;4.55;;
77061;SDS011;65989;51.686;5.138;2023-04-25T03:49:58;23.70;;;5.70;;
77061;SDS011;65989;51.686;5.138;2023-04-25T03:52:25;13.60;;;4.00;;
77061;SDS011;65989;51.686;5.138;2023-04-25T03:54:50;18.53;;;4.80;;
77061;SDS011;65989;51.686;5.138;2023-04-25T03:57:16;18.37;;;4.33;;
77061;SDS011;65989;51.686;5.138;2023-04-25T03:59:41;12.80;;;3.83;;
77061;SDS011;65989;51.686;5.138;2023-04-25T04:02:07;19.20;;;4.10;;
77061;SDS011;65989;51.686;5.138;2023-04-25T04:04:32;13.77;;;4.30;;
77061;SDS011;65989;51.686;5.138;2023-04-25T04:06:57;16.53;;;3.70;;
77061;SDS011;65989;51.686;5.138;2023-04-25T04:09:23;13.10;;;4.70;;
77061;SDS011;65989;51.686;5.138;2023-04-25T04:11:48;12.13;;;3.63;;
77061;SDS011;65989;51.686;5.138;2023-04-25T04:14:14;16.33;;;3.97;;
77061;SDS011;65989;51.686;5.138;2023-04-25T04:16:39;12.37;;;3.80;;
77061;SDS011;65989;51.686;5.138;2023-04-25T04:19:05;11.60;;;3.67;;
77061;SDS011;65989;51.686;5.138;2023-04-25T04:21:30;15.30;;;4.00;;
77061;SDS011;65989;51.686;5.138;2023-04-25T04:23:56;20.73;;;3.67;;
77061;SDS011;65989;51.686;5.138;2023-04-25T04:26:23;16.37;;;4.30;;
77061;SDS011;65989;51.686;5.138;2023-04-25T04:28:51;18.83;;;4.20;;
77061;SDS011;65989;51.686;5.138;2023-04-25T04:31:19;21.80;;;4.25;;
77061;SDS011;65989;51.686;5.138;2023-04-25T04:33:47;21.47;;;4.17;;
77061;SDS011;65989;51.686;5.138;2023-04-25T04:36:12;15.85;;;4.50;;
77061;SDS011;65989;51.686;5.138;2023-04-25T04:38:38;24.03;;;5.07;;
77061;SDS011;65989;51.686;5.138;2023-04-25T04:41:05;13.93;;;4.40;;
77061;SDS011;65989;51.686;5.138;2023-04-25T04:43:30;22.88;;;4.50;;
77061;SDS011;65989;51.686;5.138;2023-04-25T04:45:58;12.03;;;3.80;;
77061;SDS011;65989;51.686;5.138;2023-04-25T04:48:25;15.18;;;3.58;;
77061;SDS011;65989;51.686;5.138;2023-04-25T04:50:51;16.80;;;4.30;;
77061;SDS011;65989;51.686;5.138;2023-04-25T04:53:16;17.20;;;4.10;;
77061;SDS011;65989;51.686;5.138;2023-04-25T04:55:42;13.98;;;4.00;;
77061;SDS011;65989;51.686;5.138;2023-04-25T04:58:08;14.67;;;4.33;;
77061;SDS011;65989;51.686;5.138;2023-04-25T05:00:33;12.32;;;4.15;;
77061;SDS011;65989;51.686;5.138;2023-04-25T05:02:59;14.20;;;4.17;;
77061;SDS011;65989;51.686;5.138;2023-04-25T05:05:25;17.90;;;4.35;;
77061;SDS011;65989;51.686;5.138;2023-04-25T05:07:50;19.87;;;4.50;;
77061;SDS011;65989;51.686;5.138;2023-04-25T05:10:16;18.37;;;5.00;;
77061;SDS011;65989;51.686;5.138;2023-04-25T05:12:43;14.52;;;4.10;;
77061;SDS011;65989;51.686;5.138;2023-04-25T05:15:08;15.05;;;4.25;;
77061;SDS011;65989;51.686;5.138;2023-04-25T05:17:34;16.13;;;4.70;;
77061;SDS011;65989;51.686;5.138;2023-04-25T05:20:00;16.53;;;3.60;;
77061;SDS011;65989;51.686;5.138;2023-04-25T05:22:25;22.08;;;4.28;;
77061;SDS011;65989;51.686;5.138;2023-04-25T05:24:51;15.80;;;3.93;;
77061;SDS011;65989;51.686;5.138;2023-04-25T05:27:17;14.10;;;3.57;;
77061;SDS011;65989;51.686;5.138;2023-04-25T05:29:43;13.27;;;3.70;;
77061;SDS011;65989;51.686;5.138;2023-04-25T05:32:08;10.47;;;3.57;;
77061;SDS011;65989;51.686;5.138;2023-04-25T05:34:34;21.35;;;3.88;;
77061;SDS011;65989;51.686;5.138;2023-04-25T05:36:59;10.37;;;3.10;;
77061;SDS011;65989;51.686;5.138;2023-04-25T05:39:25;17.73;;;3.47;;
77061;SDS011;65989;51.686;5.138;2023-04-25T05:41:51;13.30;;;3.20;;
77061;SDS011;65989;51.686;5.138;2023-04-25T05:44:16;11.48;;;3.20;;
77061;SDS011;65989;51.686;5.138;2023-04-25T05:46:42;12.80;;;3.70;;
77061;SDS011;65989;51.686;5.138;2023-04-25T05:49:08;12.90;;;3.67;;
77061;SDS011;65989;51.686;5.138;2023-04-25T05:51:33;12.63;;;3.37;;
77061;SDS011;65989;51.686;5.138;2023-04-25T05:53:58;13.63;;;3.13;;
77061;SDS011;65989;51.686;5.138;2023-04-25T05:56:24;10.67;;;2.53;;
77061;SDS011;65989;51.686;5.138;2023-04-25T05:58:49;9.48;;;2.40;;
77061;SDS011;65989;51.686;5.138;2023-04-25T06:01:15;10.33;;;2.33;;
77061;SDS011;65989;51.686;5.138;2023-04-25T06:03:41;9.65;;;2.40;;
77061;SDS011;65989;51.686;5.138;2023-04-25T06:06:08;10.93;;;2.47;;
77061;SDS011;65989;51.686;5.138;2023-04-25T06:08:34;12.13;;;2.22;;
77061;SDS011;65989;51.686;5.138;2023-04-25T06:10:59;9.38;;;2.30;;
77061;SDS011;65989;51.686;5.138;2023-04-25T06:13:25;14.03;;;2.40;;
77061;SDS011;65989;51.686;5.138;2023-04-25T06:15:50;7.07;;;2.30;;
77061;SDS011;65989;51.686;5.138;2023-04-25T06:18:16;10.17;;;2.43;;
77061;SDS011;65989;51.686;5.138;2023-04-25T06:20:41;9.17;;;2.40;;
77061;SDS011;65989;51.686;5.138;2023-04-25T06:23:07;9.50;;;2.60;;
77061;SDS011;65989;51.686;5.138;2023-04-25T06:25:32;11.37;;;2.60;;
77061;SDS011;65989;51.686;5.138;2023-04-25T06:27:58;9.20;;;2.27;;
77061;SDS011;65989;51.686;5.138;2023-04-25T06:30:23;13.03;;;2.80;;
77061;SDS011;65989;51.686;5.138;2023-04-25T06:32:51;9.18;;;2.20;;
77061;SDS011;65989;51.686;5.138;2023-04-25T06:35:19;12.40;;;2.42;;
77061;SDS011;65989;51.686;5.138;2023-04-25T06:37:45;8.40;;;2.23;;
77061;SDS011;65989;51.686;5.138;2023-04-25T06:40:10;10.95;;;2.42;;
77061;SDS011;65989;51.686;5.138;2023-04-25T06:42:36;12.20;;;2.40;;
77061;SDS011;65989;51.686;5.138;2023-04-25T06:45:04;8.98;;;2.15;;
77061;SDS011;65989;51.686;5.138;2023-04-25T06:47:30;8.90;;;2.53;;
77061;SDS011;65989;51.686;5.138;2023-04-25T06:49:56;10.33;;;2.43;;
77061;SDS011;65989;51.686;5.138;2023-04-25T06:52:21;10.93;;;2.50;;
77061;SDS011;65989;51.686;5.138;2023-04-25T06:54:46;6.50;;;1.90;;
77061;SDS011;65989;51.686;5.138;2023-04-25T06:57:12;11.15;;;2.50;;
77061;SDS011;65989;51.686;5.138;2023-04-25T06:59:38;10.50;;;2.27;;
77061;SDS011;65989;51.686;5.138;2023-04-25T07:02:03;7.82;;;2.17;;
77061;SDS011;65989;51.686;5.138;2023-04-25T07:04:29;8.37;;;2.23;;
77061;SDS011;65989;51.686;5.138;2023-04-25T07:06:55;9.45;;;2.20;;
77061;SDS011;65989;51.686;5.138;2023-04-25T07:09:21;11.27;;;2.27;;
77061;SDS011;65989;51.686;5.138;2023-04-25T07:11:46;7.85;;;2.15;;
77061;SDS011;65989;51.686;5.138;2023-04-25T07:14:12;10.53;;;2.30;;
77061;SDS011;65989;51.686;5.138;2023-04-25T07:16:37;8.53;;;2.00;;
77061;SDS011;65989;51.686;5.138;2023-04-25T07:19:03;8.63;;;2.00;;
77061;SDS011;65989;51.686;5.138;2023-04-25T07:21:28;9.97;;;2.10;;
77061;SDS011;65989;51.686;5.138;2023-04-25T07:23:53;8.73;;;1.90;;
77061;SDS011;65989;51.686;5.138;2023-04-25T07:26:19;8.07;;;1.97;;
77061;SDS011;65989;51.686;5.138;2023-04-25T07:28:44;7.30;;;1.70;;
77061;SDS011;65989;51.686;5.138;2023-04-25T07:31:10;6.00;;;1.67;;
77061;SDS011;65989;51.686;5.138;2023-04-25T07:33:36;5.77;;;1.73;;
77061;SDS011;65989;51.686;5.138;2023-04-25T07:36:01;7.47;;;1.63;;
77061;SDS011;65989;51.686;5.138;2023-04-25T07:38:27;6.53;;;1.87;;
77061;SDS011;65989;51.686;5.138;2023-04-25T07:40:52;9.77;;;2.20;;
77061;SDS011;65989;51.686;5.138;2023-04-25T07:43:18;16.93;;;2.90;;
77061;SDS011;65989;51.686;5.138;2023-04-25T07:45:43;13.65;;;2.58;;
77061;SDS011;65989;51.686;5.138;2023-04-25T07:48:09;9.10;;;1.97;;
77061;SDS011;65989;51.686;5.138;2023-04-25T07:50:35;8.40;;;2.17;;
77061;SDS011;65989;51.686;5.138;2023-04-25T07:53:01;7.63;;;2.67;;
77061;SDS011;65989;51.686;5.138;2023-04-25T07:55:27;13.50;;;2.50;;
77061;SDS011;65989;51.686;5.138;2023-04-25T07:57:52;11.77;;;1.90;;
77061;SDS011;65989;51.686;5.138;2023-04-25T08:00:18;8.87;;;1.80;;
77061;SDS011;65989;51.686;5.138;2023-04-25T08:02:44;6.47;;;1.77;;
77061;SDS011;65989;51.686;5.138;2023-04-25T08:05:09;12.77;;;2.03;;
77061;SDS011;65989;51.686;5.138;2023-04-25T08:07:39;8.23;;;1.98;;
77061;SDS011;65989;51.686;5.138;2023-04-25T08:10:05;11.45;;;2.53;;
77061;SDS011;65989;51.686;5.138;2023-04-25T08:12:31;7.80;;;2.00;;
77061;SDS011;65989;51.686;5.138;2023-04-25T08:14:57;7.23;;;1.90;;
77061;SDS011;65989;51.686;5.138;2023-04-25T08:17:22;14.97;;;2.20;;
77061;SDS011;65989;51.686;5.138;2023-04-25T08:19:48;6.88;;;1.85;;
77061;SDS011;65989;51.686;5.138;2023-04-25T08:22:14;9.27;;;2.00;;
77061;SDS011;65989;51.686;5.138;2023-04-25T08:24:39;9.35;;;2.00;;
77061;SDS011;65989;51.686;5.138;2023-04-25T08:27:05;8.67;;;1.70;;
77061;SDS011;65989;51.686;5.138;2023-04-25T08:29:31;13.23;;;1.95;;
77061;SDS011;65989;51.686;5.138;2023-04-25T08:31:56;10.77;;;2.00;;
77061;SDS011;65989;51.686;5.138;2023-04-25T08:34:22;5.77;;;1.53;;
77061;SDS011;65989;51.686;5.138;2023-04-25T08:36:47;9.00;;;1.80;;
77061;SDS011;65989;51.686;5.138;2023-04-25T08:39:13;9.45;;;1.85;;
77061;SDS011;65989;51.686;5.138;2023-04-25T08:41:38;12.00;;;2.70;;
77061;SDS011;65989;51.686;5.138;2023-04-25T08:44:06;12.02;;;1.60;;
77061;SDS011;65989;51.686;5.138;2023-04-25T08:46:35;12.80;;;1.97;;
77061;SDS011;65989;51.686;5.138;2023-04-25T08:49:03;8.57;;;2.03;;
77061;SDS011;65989;51.686;5.138;2023-04-25T08:51:31;13.20;;;2.08;;
77061;SDS011;65989;51.686;5.138;2023-04-25T08:53:59;9.32;;;1.80;;
77061;SDS011;65989;51.686;5.138;2023-04-25T08:56:40;6.07;;;1.43;;
77061;SDS011;65989;51.686;5.138;2023-04-25T08:59:08;10.23;;;2.08;;
77061;SDS011;65989;51.686;5.138;2023-04-25T09:01:34;9.60;;;1.85;;
77061;SDS011;65989;51.686;5.138;2023-04-25T09:04:04;8.38;;;2.30;;
77061;SDS011;65989;51.686;5.138;2023-04-25T09:06:29;7.17;;;2.20;;
77061;SDS011;65989;51.686;5.138;2023-04-25T09:09:01;7.38;;;2.08;;
77061;SDS011;65989;51.686;5.138;2023-04-25T09:11:29;9.00;;;2.00;;
77061;SDS011;65989;51.686;5.138;2023-04-25T09:14:10;7.13;;;2.30;;
77061;SDS011;65989;51.686;5.138;2023-04-25T09:19:21;14.27;;;2.27;;
77061;SDS011;65989;51.686;5.138;2023-04-25T09:21:51;8.45;;;1.95;;
77061;SDS011;65989;51.686;5.138;2023-04-25T09:24:29;12.73;;;2.35;;
77061;SDS011;65989;51.686;5.138;2023-04-25T09:27:06;11.10;;;2.20;;
77061;SDS011;65989;51.686;5.138;2023-04-25T09:29:36;10.45;;;2.20;;
77061;SDS011;65989;51.686;5.138;2023-04-25T09:32:14;11.33;;;2.00;;
77061;SDS011;65989;51.686;5.138;2023-04-25T09:34:50;7.97;;;1.95;;
77061;SDS011;65989;51.686;5.138;2023-04-25T09:37:21;7.53;;;2.10;;
77061;SDS011;65989;51.686;5.138;2023-04-25T09:39:52;6.32;;;2.00;;
77061;SDS011;65989;51.686;5.138;2023-04-25T09:42:25;12.63;;;2.30;;
77061;SDS011;65989;51.686;5.138;2023-04-25T09:44:53;5.13;;;1.70;;
77061;SDS011;65989;51.686;5.138;2023-04-25T09:47:19;10.15;;;1.85;;
77061;SDS011;65989;51.686;5.138;2023-04-25T09:49:47;6.80;;;2.00;;
77061;SDS011;65989;51.686;5.138;2023-04-25T09:52:16;5.20;;;1.60;;
77061;SDS011;65989;51.686;5.138;2023-04-25T09:54:47;9.80;;;1.90;;
77061;SDS011;65989;51.686;5.138;2023-04-25T09:57:14;7.78;;;2.00;;
77061;SDS011;65989;51.686;5.138;2023-04-25T09:59:48;6.28;;;1.98;;
77061;SDS011;65989;51.686;5.138;2023-04-25T10:02:18;10.18;;;1.90;;
77061;SDS011;65989;51.686;5.138;2023-04-25T10:04:48;9.17;;;2.00;;
77061;SDS011;65989;51.686;5.138;2023-04-25T10:07:17;9.13;;;2.20;;
77061;SDS011;65989;51.686;5.138;2023-04-25T10:09:43;9.05;;;1.90;;
77061;SDS011;65989;51.686;5.138;2023-04-25T10:12:11;7.18;;;2.10;;
77061;SDS011;65989;51.686;5.138;2023-04-25T10:14:37;6.50;;;1.63;;
77061;SDS011;65989;51.686;5.138;2023-04-25T10:17:03;8.87;;;1.60;;
77061;SDS011;65989;51.686;5.138;2023-04-25T10:19:28;5.77;;;1.67;;
77061;SDS011;65989;51.686;5.138;2023-04-25T10:25:01;9.30;;;2.05;;
77061;SDS011;65989;51.686;5.138;2023-04-25T10:27:29;10.73;;;1.80;;
77061;SDS011;65989;51.686;5.138;2023-04-25T10:30:05;6.03;;;1.70;;
77061;SDS011;65989;51.686;5.138;2023-04-25T10:32:36;12.30;;;3.20;;
77061;SDS011;65989;51.686;5.138;2023-04-25T10:35:17;5.35;;;1.55;;
77061;SDS011;65989;51.686;5.138;2023-04-25T10:40:29;6.32;;;1.42;;
77061;SDS011;65989;51.686;5.138;2023-04-25T10:42:55;5.63;;;1.60;;
77061;SDS011;65989;51.686;5.138;2023-04-25T10:45:21;6.68;;;2.00;;
77061;SDS011;65989;51.686;5.138;2023-04-25T10:47:47;6.90;;;1.80;;
77061;SDS011;65989;51.686;5.138;2023-04-25T10:50:16;8.53;;;1.70;;
77061;SDS011;65989;51.686;5.138;2023-04-25T10:52:42;9.63;;;1.60;;
77061;SDS011;65989;51.686;5.138;2023-04-25T10:55:09;8.23;;;1.75;;
77061;SDS011;65989;51.686;5.138;2023-04-25T11:05:10;7.13;;;1.60;;
77061;SDS011;65989;51.686;5.138;2023-04-25T11:07:51;13.85;;;2.05;;
77061;SDS011;65989;51.686;5.138;2023-04-25T11:10:19;5.37;;;1.60;;
77061;SDS011;65989;51.686;5.138;2023-04-25T11:12:45;8.60;;;1.73;;
77061;SDS011;65989;51.686;5.138;2023-04-25T11:15:12;7.82;;;2.08;;
77061;SDS011;65989;51.686;5.138;2023-04-25T11:17:38;7.97;;;1.67;;
77061;SDS011;65989;51.686;5.138;2023-04-25T11:20:05;9.30;;;1.27;;
77061;SDS011;65989;51.686;5.138;2023-04-25T11:22:34;6.05;;;1.42;;
77061;SDS011;65989;51.686;5.138;2023-04-25T11:25:04;8.20;;;1.70;;
77061;SDS011;65989;51.686;5.138;2023-04-25T11:27:31;5.63;;;1.60;;
77061;SDS011;65989;51.686;5.138;2023-04-25T11:29:56;4.55;;;1.33;;
77061;SDS011;65989;51.686;5.138;2023-04-25T11:32:22;6.87;;;1.23;;
77061;SDS011;65989;51.686;5.138;2023-04-25T11:34:47;4.70;;;1.40;;
77061;SDS011;65989;51.686;5.138;2023-04-25T11:37:12;5.27;;;1.50;;
77061;SDS011;65989;51.686;5.138;2023-04-25T11:39:42;6.57;;;1.50;;
77061;SDS011;65989;51.686;5.138;2023-04-25T11:42:09;5.20;;;1.50;;
77061;SDS011;65989;51.686;5.138;2023-04-25T11:44:34;4.70;;;1.40;;
77061;SDS011;65989;51.686;5.138;2023-04-25T11:47:00;7.55;;;1.40;;
77061;SDS011;65989;51.686;5.138;2023-04-25T11:49:30;5.10;;;1.30;;
77061;SDS011;65989;51.686;5.138;2023-04-25T11:51:56;5.97;;;1.50;;
77061;SDS011;65989;51.686;5.138;2023-04-25T11:54:22;6.13;;;1.47;;
77061;SDS011;65989;51.686;5.138;2023-04-25T11:56:48;6.22;;;1.17;;
77061;SDS011;65989;51.686;5.138;2023-04-25T11:59:13;5.93;;;1.67;;
77061;SDS011;65989;51.686;5.138;2023-04-25T12:01:46;7.77;;;1.50;;
77061;SDS011;65989;51.686;5.138;2023-04-25T12:06:40;7.70;;;1.80;;
77061;SDS011;65989;51.686;5.138;2023-04-25T12:09:08;6.78;;;1.35;;
77061;SDS011;65989;51.686;5.138;2023-04-25T12:11:42;7.90;;;1.60;;
77061;SDS011;65989;51.686;5.138;2023-04-25T12:14:08;5.00;;;1.50;;
77061;SDS011;65989;51.686;5.138;2023-04-25T12:16:41;6.65;;;1.55;;
77061;SDS011;65989;51.686;5.138;2023-04-25T12:19:08;5.65;;;1.33;;
77061;SDS011;65989;51.686;5.138;2023-04-25T12:21:34;6.93;;;1.52;;
77061;SDS011;65989;51.686;5.138;2023-04-25T12:26:52;5.07;;;1.35;;
77061;SDS011;65989;51.686;5.138;2023-04-25T12:29:24;6.90;;;1.60;;
77061;SDS011;65989;51.686;5.138;2023-04-25T12:31:51;5.07;;;1.50;;
77061;SDS011;65989;51.686;5.138;2023-04-25T12:34:18;8.77;;;1.75;;
77061;SDS011;65989;51.686;5.138;2023-04-25T12:36:44;4.00;;;1.40;;
77061;SDS011;65989;51.686;5.138;2023-04-25T12:39:14;8.07;;;1.70;;
77061;SDS011;65989;51.686;5.138;2023-04-25T12:41:52;5.65;;;1.67;;
77061;SDS011;65989;51.686;5.138;2023-04-25T12:44:19;7.45;;;1.92;;
77061;SDS011;65989;51.686;5.138;2023-04-25T12:46:44;10.03;;;1.67;;
77061;SDS011;65989;51.686;5.138;2023-04-25T12:49:10;6.20;;;1.67;;
77061;SDS011;65989;51.686;5.138;2023-04-25T12:51:35;9.67;;;1.97;;
77061;SDS011;65989;51.686;5.138;2023-04-25T12:54:02;5.40;;;1.33;;
77061;SDS011;65989;51.686;5.138;2023-04-25T12:56:29;7.30;;;1.73;;
77061;SDS011;65989;51.686;5.138;2023-04-25T12:58:55;8.35;;;1.92;;
77061;SDS011;65989;51.686;5.138;2023-04-25T13:01:22;7.05;;;1.88;;
77061;SDS011;65989;51.686;5.138;2023-04-25T13:03:48;6.70;;;1.80;;
77061;SDS011;65989;51.686;5.138;2023-04-25T13:06:14;8.07;;;1.63;;
77061;SDS011;65989;51.686;5.138;2023-04-25T13:08:40;14.10;;;2.55;;
77061;SDS011;65989;51.686;5.138;2023-04-25T13:11:06;7.40;;;1.73;;
77061;SDS011;65989;51.686;5.138;2023-04-25T13:13:32;8.77;;;1.70;;
77061;SDS011;65989;51.686;5.138;2023-04-25T13:15:59;7.70;;;1.77;;
77061;SDS011;65989;51.686;5.138;2023-04-25T13:18:25;5.43;;;1.40;;
77061;SDS011;65989;51.686;5.138;2023-04-25T13:20:53;5.65;;;1.40;;
77061;SDS011;65989;51.686;5.138;2023-04-25T13:23:19;10.37;;;1.40;;
77061;SDS011;65989;51.686;5.138;2023-04-25T13:25:45;9.95;;;2.25;;
77061;SDS011;65989;51.686;5.138;2023-04-25T13:28:11;7.97;;;1.88;;
77061;SDS011;65989;51.686;5.138;2023-04-25T13:30:37;7.23;;;1.63;;
77061;SDS011;65989;51.686;5.138;2023-04-25T13:33:02;7.32;;;1.70;;
77061;SDS011;65989;51.686;5.138;2023-04-25T13:35:28;8.47;;;1.90;;
77061;SDS011;65989;51.686;5.138;2023-04-25T13:37:55;4.28;;;1.38;;
77061;SDS011;65989;51.686;5.138;2023-04-25T13:40:21;12.90;;;2.50;;
77061;SDS011;65989;51.686;5.138;2023-04-25T13:42:46;6.82;;;1.88;;
77061;SDS011;65989;51.686;5.138;2023-04-25T13:45:12;7.77;;;1.73;;
77061;SDS011;65989;51.686;5.138;2023-04-25T13:47:37;11.80;;;1.80;;
77061;SDS011;65989;51.686;5.138;2023-04-25T13:50:03;8.43;;;1.55;;
77061;SDS011;65989;51.686;5.138;2023-04-25T13:52:30;5.87;;;1.50;;
77061;SDS011;65989;51.686;5.138;2023-04-25T13:54:56;4.47;;;1.50;;
77061;SDS011;65989;51.686;5.138;2023-04-25T13:57:22;4.60;;;1.30;;
77061;SDS011;65989;51.686;5.138;2023-04-25T13:59:48;3.90;;;1.30;;
77061;SDS011;65989;51.686;5.138;2023-04-25T14:02:13;3.43;;;1.17;;
77061;SDS011;65989;51.686;5.138;2023-04-25T14:04:39;3.92;;;1.40;;
77061;SDS011;65989;51.686;5.138;2023-04-25T14:07:04;4.23;;;1.43;;
77061;SDS011;65989;51.686;5.138;2023-04-25T14:09:30;4.93;;;1.40;;
77061;SDS011;65989;51.686;5.138;2023-04-25T14:11:55;6.15;;;1.58;;
77061;SDS011;65989;51.686;5.138;2023-04-25T14:14:21;8.03;;;1.63;;
77061;SDS011;65989;51.686;5.138;2023-04-25T14:16:47;6.53;;;1.65;;
77061;SDS011;65989;51.686;5.138;2023-04-25T14:19:16;4.22;;;1.50;;
77061;SDS011;65989;51.686;5.138;2023-04-25T14:21:42;5.50;;;1.45;;
77061;SDS011;65989;51.686;5.138;2023-04-25T14:24:09;5.97;;;1.40;;
77061;SDS011;65989;51.686;5.138;2023-04-25T14:26:35;8.02;;;1.60;;
77061;SDS011;65989;51.686;5.138;2023-04-25T14:29:01;4.57;;;1.70;;
77061;SDS011;65989;51.686;5.138;2023-04-25T14:31:28;7.83;;;1.90;;
77061;SDS011;65989;51.686;5.138;2023-04-25T14:33:54;7.47;;;1.60;;
77061;SDS011;65989;51.686;5.138;2023-04-25T14:36:19;10.80;;;1.73;;
77061;SDS011;65989;51.686;5.138;2023-04-25T14:38:45;5.68;;;1.55;;
77061;SDS011;65989;51.686;5.138;2023-04-25T14:41:10;9.47;;;1.70;;
77061;SDS011;65989;51.686;5.138;2023-04-25T14:43:36;5.73;;;1.60;;
77061;SDS011;65989;51.686;5.138;2023-04-25T14:46:01;7.75;;;1.80;;
77061;SDS011;65989;51.686;5.138;2023-04-25T14:48:27;7.40;;;1.67;;
77061;SDS011;65989;51.686;5.138;2023-04-25T14:50:54;8.70;;;2.00;;
77061;SDS011;65989;51.686;5.138;2023-04-25T14:53:21;8.40;;;1.92;;
77061;SDS011;65989;51.686;5.138;2023-04-25T14:55:47;4.63;;;1.50;;
77061;SDS011;65989;51.686;5.138;2023-04-25T14:58:13;11.32;;;2.50;;